createdAt,value
2022-10-09T00:00:48.360Z,8.69
2022-10-09T00:01:48.432Z,8.69
2022-10-09T00:02:48.599Z,8.67
2022-10-09T00:03:48.320Z,8.66
2022-10-09T00:04:48.368Z,8.69
2022-10-09T00:05:48.289Z,8.63
2022-10-09T00:06:48.275Z,8.66
2022-10-09T00:07:48.287Z,8.53
2022-10-09T00:08:48.267Z,8.69
2022-10-09T00:09:48.247Z,8.64
2022-10-09T00:10:48.228Z,8.67
2022-10-09T00:11:48.226Z,8.64
2022-10-09T00:12:48.499Z,8.63
2022-10-09T00:13:48.217Z,8.66
2022-10-09T00:14:48.190Z,8.64
2022-10-09T00:15:48.204Z,8.58
2022-10-09T00:16:48.216Z,8.60
2022-10-09T00:17:48.168Z,8.58
2022-10-09T00:18:48.206Z,8.53
2022-10-09T00:19:48.137Z,8.52
2022-10-09T00:20:48.144Z,8.48
2022-10-09T00:21:48.122Z,8.53
2022-10-09T00:22:48.350Z,8.55
2022-10-09T00:23:48.095Z,8.49
2022-10-09T00:24:48.116Z,8.46
2022-10-09T00:25:48.078Z,8.41
2022-10-09T00:26:48.066Z,8.49
2022-10-09T00:27:48.047Z,8.44
2022-10-09T00:28:48.139Z,8.44
2022-10-09T00:29:48.043Z,8.44
2022-10-09T00:30:48.076Z,8.45
2022-10-09T00:31:48.012Z,8.36
2022-10-09T00:32:48.298Z,8.36
2022-10-09T00:33:48.002Z,8.38
2022-10-09T00:34:47.976Z,8.34
2022-10-09T00:35:47.971Z,8.38
2022-10-09T00:36:47.964Z,8.37
2022-10-09T00:37:47.944Z,8.30
2022-10-09T00:38:47.974Z,8.36
2022-10-09T00:39:47.927Z,8.48
2022-10-09T00:40:47.929Z,8.44
2022-10-09T00:41:47.898Z,8.44
2022-10-09T00:42:48.198Z,8.46
2022-10-09T00:43:47.886Z,8.45
2022-10-09T00:44:47.889Z,8.45
2022-10-09T00:45:47.895Z,8.41
2022-10-09T00:46:47.845Z,8.49
2022-10-09T00:47:47.830Z,8.37
2022-10-09T00:48:47.839Z,8.33
2022-10-09T00:49:47.813Z,8.41
2022-10-09T00:50:47.805Z,8.33
2022-10-09T00:51:47.803Z,8.41
2022-10-09T00:52:48.079Z,8.37
2022-10-09T00:53:47.763Z,8.34
2022-10-09T00:54:47.794Z,8.31
2022-10-09T00:55:47.761Z,8.34
2022-10-09T00:56:47.758Z,8.28
2022-10-09T00:57:47.719Z,8.24
2022-10-09T00:58:47.710Z,8.24
2022-10-09T00:59:47.696Z,8.30
2022-10-09T01:00:47.699Z,8.33
2022-10-09T01:01:47.856Z,8.24
2022-10-09T01:02:48.134Z,8.20
2022-10-09T01:03:47.651Z,8.28
2022-10-09T01:04:47.641Z,8.26
2022-10-09T01:05:47.637Z,8.23
2022-10-09T01:06:47.627Z,8.19
2022-10-09T01:07:47.619Z,8.15
2022-10-09T01:08:47.612Z,8.26
2022-10-09T01:09:47.580Z,8.16
2022-10-09T01:10:47.581Z,8.16
2022-10-09T01:11:47.571Z,8.13
2022-10-09T01:12:47.987Z,8.13
2022-10-09T01:13:47.537Z,8.10
2022-10-09T01:14:47.537Z,8.01
2022-10-09T01:15:47.538Z,8.03
2022-10-09T01:16:47.523Z,8.08
2022-10-09T01:17:47.507Z,7.98
2022-10-09T01:18:47.493Z,8.10
2022-10-09T01:19:47.472Z,8.01
2022-10-09T01:20:47.497Z,8.00
2022-10-09T01:21:47.483Z,8.00
2022-10-09T01:22:47.823Z,8.01
2022-10-09T01:23:47.436Z,7.93
2022-10-09T01:24:47.441Z,7.94
2022-10-09T01:25:47.419Z,7.93
2022-10-09T01:26:47.401Z,8.03
2022-10-09T01:27:47.393Z,7.98
2022-10-09T01:28:47.474Z,8.01
2022-10-09T01:29:47.363Z,8.13
2022-10-09T01:30:47.418Z,8.05
2022-10-09T01:31:47.360Z,8.06
2022-10-09T01:32:47.727Z,8.05
2022-10-09T01:33:47.342Z,8.00
2022-10-09T01:34:47.303Z,8.05
2022-10-09T01:35:47.306Z,8.01
2022-10-09T01:36:47.306Z,8.05
2022-10-09T01:37:47.282Z,7.98
2022-10-09T01:38:47.261Z,8.03
2022-10-09T01:39:47.256Z,7.98
2022-10-09T01:40:47.257Z,7.98
2022-10-09T01:41:47.229Z,7.94
2022-10-09T01:42:47.686Z,7.94
2022-10-09T01:43:47.220Z,7.93
2022-10-09T01:44:47.193Z,7.94
2022-10-09T01:45:47.185Z,7.87
2022-10-09T01:46:47.184Z,7.87
2022-10-09T01:47:47.170Z,7.83
2022-10-09T01:48:47.154Z,7.82
2022-10-09T01:49:47.166Z,7.91
2022-10-09T01:50:47.133Z,7.82
2022-10-09T01:51:47.118Z,7.88
2022-10-09T01:52:47.402Z,7.87
2022-10-09T01:53:47.095Z,7.83
2022-10-09T01:54:47.101Z,7.91
2022-10-09T01:55:47.101Z,7.95
2022-10-09T01:56:47.075Z,7.90
2022-10-09T01:57:47.060Z,7.88
2022-10-09T01:58:47.042Z,7.95
2022-10-09T01:59:47.070Z,7.85
2022-10-09T02:00:47.025Z,7.85
2022-10-09T02:01:47.157Z,7.79
2022-10-09T02:02:47.517Z,7.79
2022-10-09T02:03:46.990Z,7.79
2022-10-09T02:04:47.000Z,7.76
2022-10-09T02:05:46.962Z,7.75
2022-10-09T02:06:46.973Z,7.70
2022-10-09T02:07:46.953Z,7.76
2022-10-09T02:08:46.931Z,7.75
2022-10-09T02:09:46.928Z,7.66
2022-10-09T02:10:46.906Z,7.72
2022-10-09T02:11:46.897Z,7.69
2022-10-09T02:12:47.294Z,7.73
2022-10-09T02:13:46.890Z,7.75
2022-10-09T02:14:46.859Z,7.66
2022-10-09T02:15:46.937Z,7.67
2022-10-09T02:16:46.861Z,7.69
2022-10-09T02:17:46.827Z,7.60
2022-10-09T02:18:46.833Z,7.60
2022-10-09T02:19:46.837Z,7.67
2022-10-09T02:20:46.825Z,7.72
2022-10-09T02:21:46.843Z,7.72
2022-10-09T02:22:47.125Z,7.67
2022-10-09T02:23:46.788Z,7.61
2022-10-09T02:24:46.794Z,7.70
2022-10-09T02:25:46.758Z,7.51
2022-10-09T02:26:46.739Z,7.61
2022-10-09T02:27:46.718Z,7.67
2022-10-09T02:28:46.798Z,7.57
2022-10-09T02:29:46.712Z,7.60
2022-10-09T02:30:46.738Z,7.58
2022-10-09T02:31:46.695Z,7.53
2022-10-09T02:32:47.030Z,7.61
2022-10-09T02:33:46.665Z,7.58
2022-10-09T02:34:46.647Z,7.76
2022-10-09T02:35:46.638Z,7.56
2022-10-09T02:36:46.619Z,7.56
2022-10-09T02:37:46.605Z,7.58
2022-10-09T02:38:46.712Z,7.60
2022-10-09T02:39:46.595Z,7.57
2022-10-09T02:40:46.598Z,7.66
2022-10-09T02:41:46.565Z,7.60
2022-10-09T02:42:46.877Z,7.69
2022-10-09T02:43:46.544Z,7.61
2022-10-09T02:44:46.581Z,7.58
2022-10-09T02:45:46.527Z,7.61
2022-10-09T02:46:46.576Z,7.56
2022-10-09T02:47:46.509Z,7.54
2022-10-09T02:48:46.487Z,7.60
2022-10-09T02:49:46.516Z,7.57
2022-10-09T02:50:46.474Z,7.57
2022-10-09T02:51:46.461Z,7.60
2022-10-09T02:52:46.853Z,7.58
2022-10-09T02:53:46.465Z,7.56
2022-10-09T02:54:46.420Z,7.60
2022-10-09T02:55:46.418Z,7.53
2022-10-09T02:56:46.397Z,7.56
2022-10-09T02:57:46.402Z,7.60
2022-10-09T02:58:46.377Z,7.54
2022-10-09T02:59:46.391Z,7.63
2022-10-09T03:00:46.378Z,7.63
2022-10-09T03:01:46.481Z,7.61
2022-10-09T03:02:46.770Z,7.56
2022-10-09T03:03:46.315Z,7.53
2022-10-09T03:04:46.321Z,7.61
2022-10-09T03:05:46.309Z,7.56
2022-10-09T03:06:46.314Z,7.54
2022-10-09T03:07:46.274Z,7.54
2022-10-09T03:08:46.271Z,7.58
2022-10-09T03:09:46.261Z,7.56
2022-10-09T03:10:46.260Z,7.66
2022-10-09T03:11:46.232Z,7.54
2022-10-09T03:12:46.615Z,7.63
2022-10-09T03:13:46.208Z,7.63
2022-10-09T03:14:46.212Z,7.69
2022-10-09T03:15:46.231Z,7.56
2022-10-09T03:16:46.203Z,7.56
2022-10-09T03:17:46.166Z,7.58
2022-10-09T03:18:46.167Z,7.54
2022-10-09T03:19:46.160Z,7.58
2022-10-09T03:20:46.128Z,7.51
2022-10-09T03:21:46.129Z,7.60
2022-10-09T03:22:46.398Z,7.54
2022-10-09T03:23:46.099Z,7.53
2022-10-09T03:24:46.100Z,7.67
2022-10-09T03:25:46.106Z,7.56
2022-10-09T03:26:46.073Z,7.58
2022-10-09T03:27:46.055Z,7.67
2022-10-09T03:28:46.092Z,7.50
2022-10-09T03:29:46.046Z,7.67
2022-10-09T03:30:46.018Z,7.58
2022-10-09T03:31:52.502Z,7.61
2022-10-09T03:32:47.359Z,7.58
2022-10-09T03:33:45.984Z,7.60
2022-10-09T03:34:45.980Z,7.53
2022-10-09T03:35:45.986Z,7.53
2022-10-09T03:36:45.965Z,7.72
2022-10-09T03:37:45.943Z,7.69
2022-10-09T03:38:45.938Z,7.53
2022-10-09T03:39:45.954Z,7.61
2022-10-09T03:40:45.942Z,7.58
2022-10-09T03:41:45.921Z,7.53
2022-10-09T03:42:46.102Z,7.51
2022-10-09T03:43:45.885Z,7.50
2022-10-09T03:44:45.870Z,7.58
2022-10-09T03:45:45.867Z,7.58
2022-10-09T03:46:45.915Z,7.60
2022-10-09T03:47:45.858Z,7.63
2022-10-09T03:48:45.839Z,7.53
2022-10-09T03:49:45.810Z,7.60
2022-10-09T03:50:45.827Z,7.57
2022-10-09T03:51:45.795Z,7.58
2022-10-09T03:52:46.101Z,7.67
2022-10-09T03:53:45.767Z,7.60
2022-10-09T03:54:45.775Z,7.61
2022-10-09T03:55:45.743Z,7.57
2022-10-09T03:56:45.760Z,7.50
2022-10-09T03:57:45.759Z,7.51
2022-10-09T03:58:45.735Z,7.45
2022-10-09T03:59:45.700Z,7.51
2022-10-09T04:00:45.755Z,7.47
2022-10-09T04:01:45.676Z,7.45
2022-10-09T04:02:45.864Z,7.38
2022-10-09T04:03:45.652Z,7.40
2022-10-09T04:04:45.657Z,7.31
2022-10-09T04:05:45.628Z,7.32
2022-10-09T04:06:45.631Z,7.38
2022-10-09T04:07:45.622Z,7.33
2022-10-09T04:08:45.601Z,7.29
2022-10-09T04:09:45.607Z,7.31
2022-10-09T04:10:45.594Z,7.31
2022-10-09T04:11:45.565Z,7.33
2022-10-09T04:12:45.756Z,7.31
2022-10-09T04:13:45.544Z,7.28
2022-10-09T04:14:45.566Z,7.18
2022-10-09T04:15:45.527Z,7.18
2022-10-09T04:16:45.567Z,7.20
2022-10-09T04:17:45.513Z,7.18
2022-10-09T04:18:45.488Z,7.17
2022-10-09T04:19:45.477Z,7.15
2022-10-09T04:20:45.486Z,7.24
2022-10-09T04:21:45.490Z,7.18
2022-10-09T04:22:45.673Z,7.18
2022-10-09T04:23:45.433Z,7.18
2022-10-09T04:24:45.430Z,7.18
2022-10-09T04:25:45.451Z,7.24
2022-10-09T04:26:45.403Z,7.24
2022-10-09T04:27:45.422Z,7.17
2022-10-09T04:28:45.465Z,7.24
2022-10-09T04:29:45.382Z,7.17
2022-10-09T04:30:45.370Z,7.11
2022-10-09T04:31:45.415Z,7.05
2022-10-09T04:32:45.444Z,7.14
2022-10-09T04:33:45.357Z,7.18
2022-10-09T04:34:45.322Z,7.05
2022-10-09T04:35:45.313Z,7.11
2022-10-09T04:36:45.329Z,7.03
2022-10-09T04:37:45.286Z,7.13
2022-10-09T04:38:45.273Z,7.07
2022-10-09T04:39:45.263Z,7.15
2022-10-09T04:40:45.248Z,7.15
2022-10-09T04:41:45.230Z,7.15
2022-10-09T04:42:45.226Z,6.99
2022-10-09T04:43:45.257Z,7.11
2022-10-09T04:44:45.223Z,7.15
2022-10-09T04:45:45.215Z,7.03
2022-10-09T04:46:45.198Z,7.10
2022-10-09T04:47:45.168Z,7.02
2022-10-09T04:48:45.724Z,7.03
2022-10-09T04:49:45.155Z,7.07
2022-10-09T04:50:45.148Z,7.13
2022-10-09T04:51:45.132Z,7.00
2022-10-09T04:52:45.134Z,6.99
2022-10-09T04:53:45.115Z,6.97
2022-10-09T04:54:45.095Z,6.87
2022-10-09T04:55:45.080Z,6.95
2022-10-09T04:56:45.077Z,6.89
2022-10-09T04:57:45.067Z,6.88
2022-10-09T04:58:45.048Z,6.92
2022-10-09T04:59:45.057Z,6.88
2022-10-09T05:00:45.149Z,6.93
2022-10-09T05:01:45.066Z,6.93
2022-10-09T05:02:45.009Z,6.85
2022-10-09T05:03:44.986Z,6.89
2022-10-09T05:04:44.998Z,6.92
2022-10-09T05:05:44.969Z,6.96
2022-10-09T05:06:44.981Z,6.87
2022-10-09T05:07:44.951Z,6.88
2022-10-09T05:08:44.952Z,6.92
2022-10-09T05:09:44.953Z,6.93
2022-10-09T05:10:44.924Z,6.88
2022-10-09T05:11:44.915Z,6.87
2022-10-09T05:12:44.891Z,6.96
2022-10-09T05:13:44.889Z,6.89
2022-10-09T05:14:44.881Z,6.85
2022-10-09T05:15:44.855Z,6.84
2022-10-09T05:17:11.709Z,6.82
2022-10-09T05:17:45.944Z,6.85
2022-10-09T05:18:44.840Z,6.78
2022-10-09T05:19:44.811Z,6.81
2022-10-09T05:20:44.801Z,6.78
2022-10-09T05:21:44.800Z,6.75
2022-10-09T05:22:44.803Z,6.74
2022-10-09T05:23:44.805Z,6.69
2022-10-09T05:24:44.777Z,6.67
2022-10-09T05:25:44.771Z,6.74
2022-10-09T05:26:44.734Z,6.69
2022-10-09T05:27:44.744Z,6.67
2022-10-09T05:28:44.832Z,6.62
2022-10-09T05:29:44.703Z,6.59
2022-10-09T05:30:44.698Z,6.39
2022-10-09T05:31:49.326Z,6.51
2022-10-09T05:32:45.861Z,6.51
2022-10-09T05:33:44.669Z,6.54
2022-10-09T05:34:44.649Z,6.51
2022-10-09T05:35:44.634Z,6.48
2022-10-09T05:36:44.633Z,6.51
2022-10-09T05:37:44.640Z,6.48
2022-10-09T05:38:44.619Z,6.52
2022-10-09T05:39:44.602Z,6.66
2022-10-09T05:40:44.746Z,6.66
2022-10-09T05:41:44.570Z,6.70
2022-10-09T05:42:44.594Z,6.70
2022-10-09T05:43:44.556Z,6.74
2022-10-09T05:44:44.587Z,6.75
2022-10-09T05:45:44.551Z,6.75
2022-10-09T05:46:44.522Z,6.62
2022-10-09T05:47:44.505Z,6.56
2022-10-09T05:48:44.493Z,6.52
2022-10-09T05:49:44.490Z,6.49
2022-10-09T05:50:44.480Z,6.51
2022-10-09T05:51:44.469Z,6.49
2022-10-09T05:52:44.457Z,6.39
2022-10-09T05:53:44.478Z,6.44
2022-10-09T05:54:44.429Z,6.54
2022-10-09T05:55:44.422Z,6.52
2022-10-09T05:56:44.442Z,6.49
2022-10-09T05:57:44.403Z,6.52
2022-10-09T05:58:44.383Z,6.51
2022-10-09T05:59:44.385Z,6.46
2022-10-09T06:00:44.363Z,6.49
2022-10-09T06:01:44.449Z,6.45
2022-10-09T06:02:44.386Z,6.45
2022-10-09T06:03:44.335Z,6.52
2022-10-09T06:04:44.373Z,6.56
2022-10-09T06:05:44.303Z,6.63
2022-10-09T06:06:44.318Z,6.56
2022-10-09T06:07:45.224Z,6.52
2022-10-09T06:08:44.281Z,6.57
2022-10-09T06:09:44.267Z,6.60
2022-10-09T06:10:44.292Z,6.51
2022-10-09T06:11:44.254Z,6.51
2022-10-09T06:12:44.242Z,6.62
2022-10-09T06:13:44.323Z,6.69
2022-10-09T06:14:44.204Z,6.64
2022-10-09T06:15:44.202Z,6.60
2022-10-09T06:16:44.318Z,6.59
2022-10-09T06:17:44.207Z,6.60
2022-10-09T06:18:48.734Z,6.60
2022-10-09T06:19:45.147Z,6.60
2022-10-09T06:20:44.139Z,6.56
2022-10-09T06:21:44.137Z,6.56
2022-10-09T06:22:44.148Z,6.60
2022-10-09T06:23:44.103Z,6.63
2022-10-09T06:24:44.118Z,6.62
2022-10-09T06:25:44.089Z,6.70
2022-10-09T06:26:44.076Z,6.59
2022-10-09T06:27:44.078Z,6.64
2022-10-09T06:28:44.166Z,6.66
2022-10-09T06:29:44.053Z,6.64
2022-10-09T06:30:44.084Z,6.64
2022-10-09T06:31:44.029Z,6.74
2022-10-09T06:32:44.021Z,6.72
2022-10-09T06:33:44.005Z,6.67
2022-10-09T06:34:43.980Z,6.75
2022-10-09T06:35:43.978Z,6.67
2022-10-09T06:36:43.975Z,6.75
2022-10-09T06:37:43.966Z,6.62
2022-10-09T06:38:43.939Z,6.74
2022-10-09T06:39:43.960Z,6.74
2022-10-09T06:40:43.922Z,6.74
2022-10-09T06:41:43.911Z,6.78
2022-10-09T06:42:43.891Z,6.77
2022-10-09T06:43:43.921Z,6.87
2022-10-09T06:44:43.897Z,6.89
2022-10-09T06:45:43.891Z,6.88
2022-10-09T06:46:43.857Z,6.88
2022-10-09T06:47:43.840Z,6.89
2022-10-09T06:48:43.871Z,6.89
2022-10-09T06:49:43.825Z,6.88
2022-10-09T06:50:43.818Z,6.93
2022-10-09T06:51:43.801Z,6.99
2022-10-09T06:52:43.841Z,6.97
2022-10-09T06:53:43.783Z,7.02
2022-10-09T06:54:43.759Z,7.05
2022-10-09T06:55:43.751Z,6.99
2022-10-09T06:56:43.769Z,7.06
2022-10-09T06:57:43.751Z,7.05
2022-10-09T06:58:43.744Z,7.00
2022-10-09T06:59:43.710Z,7.06
2022-10-09T07:00:43.715Z,7.14
2022-10-09T07:01:43.792Z,7.14
2022-10-09T07:02:44.322Z,7.13
2022-10-09T07:03:43.695Z,7.25
2022-10-09T07:04:43.668Z,7.17
2022-10-09T07:05:43.643Z,7.24
2022-10-09T07:06:43.656Z,7.25
2022-10-09T07:07:43.634Z,7.38
2022-10-09T07:08:43.718Z,7.32
2022-10-09T07:09:43.601Z,7.33
2022-10-09T07:10:43.579Z,7.39
2022-10-09T07:11:43.628Z,7.38
2022-10-09T07:12:43.573Z,7.35
2022-10-09T07:13:43.559Z,7.39
2022-10-09T07:14:43.565Z,7.38
2022-10-09T07:15:43.608Z,7.43
2022-10-09T07:16:43.540Z,7.50
2022-10-09T07:17:43.514Z,7.58
2022-10-09T07:18:43.493Z,7.51
2022-10-09T07:19:43.516Z,7.50
2022-10-09T07:20:43.477Z,7.69
2022-10-09T07:21:43.470Z,7.63
2022-10-09T07:22:43.452Z,7.82
2022-10-09T07:23:43.447Z,7.82
2022-10-09T07:24:43.442Z,7.82
2022-10-09T07:25:43.421Z,7.79
2022-10-09T07:26:43.408Z,7.85
2022-10-09T07:27:43.398Z,8.05
2022-10-09T07:28:43.445Z,8.24
2022-10-09T07:29:43.401Z,8.27
2022-10-09T07:30:43.418Z,8.33
2022-10-09T07:31:43.362Z,8.51
2022-10-09T07:32:43.378Z,8.64
2022-10-09T07:33:43.337Z,8.81
2022-10-09T07:34:43.331Z,9.06
2022-10-09T07:35:43.316Z,9.25
2022-10-09T07:36:43.294Z,9.32
2022-10-09T07:37:43.294Z,9.62
2022-10-09T07:38:43.269Z,9.94
2022-10-09T07:39:45.133Z,10.26
2022-10-09T07:40:43.256Z,10.59
2022-10-09T07:41:43.264Z,10.72
2022-10-09T07:42:43.264Z,10.99
2022-10-09T07:43:43.219Z,11.27
2022-10-09T07:44:43.247Z,11.72
2022-10-09T07:45:43.358Z,11.97
2022-10-09T07:46:43.279Z,12.02
2022-10-09T07:47:43.183Z,11.99
2022-10-09T07:48:43.191Z,11.97
2022-10-09T07:49:43.175Z,11.77
2022-10-09T07:50:43.144Z,11.75
2022-10-09T07:51:43.154Z,11.69
2022-10-09T07:52:43.119Z,11.65
2022-10-09T07:53:43.109Z,11.69
2022-10-09T07:54:43.107Z,11.75
2022-10-09T07:55:43.089Z,11.77
2022-10-09T07:56:43.092Z,11.48
2022-10-09T07:57:43.064Z,11.50
2022-10-09T07:58:43.074Z,11.50
2022-10-09T07:59:43.055Z,11.55
2022-10-09T08:00:43.035Z,11.57
2022-10-09T08:01:43.105Z,11.75
2022-10-09T08:02:43.056Z,11.95
2022-10-09T08:03:42.998Z,12.04
2022-10-09T08:04:43.001Z,12.06
2022-10-09T08:05:42.987Z,12.24
2022-10-09T08:06:42.996Z,12.28
2022-10-09T08:07:42.952Z,12.35
2022-10-09T08:08:42.946Z,12.53
2022-10-09T08:09:42.935Z,12.64
2022-10-09T08:10:42.950Z,12.49
2022-10-09T08:11:42.909Z,12.49
2022-10-09T08:12:42.890Z,12.42
2022-10-09T08:13:42.902Z,12.37
2022-10-09T08:14:42.876Z,12.32
2022-10-09T08:15:42.906Z,12.37
2022-10-09T08:16:42.856Z,12.42
2022-10-09T08:17:42.870Z,12.36
2022-10-09T08:18:42.843Z,12.42
2022-10-09T08:19:42.827Z,12.45
2022-10-09T08:20:42.836Z,12.58
2022-10-09T08:21:42.799Z,12.54
2022-10-09T08:22:42.782Z,12.60
2022-10-09T08:23:42.792Z,12.55
2022-10-09T08:24:42.786Z,12.47
2022-10-09T08:25:42.756Z,12.58
2022-10-09T08:26:42.757Z,12.61
2022-10-09T08:27:42.736Z,12.58
2022-10-09T08:28:42.896Z,12.58
2022-10-09T08:29:42.728Z,12.61
2022-10-09T08:30:42.738Z,12.60
2022-10-09T08:31:42.761Z,12.65
2022-10-09T08:32:42.692Z,12.62
2022-10-09T08:33:42.663Z,12.55
2022-10-09T08:34:42.663Z,12.68
2022-10-09T08:35:42.673Z,12.73
2022-10-09T08:36:42.670Z,12.93
2022-10-09T08:37:42.628Z,12.97
2022-10-09T08:38:47.649Z,12.98
2022-10-09T08:39:43.593Z,13.27
2022-10-09T08:40:42.646Z,13.18
2022-10-09T08:41:42.612Z,13.31
2022-10-09T08:42:42.564Z,13.39
2022-10-09T08:43:42.556Z,13.42
2022-10-09T08:44:42.536Z,13.42
2022-10-09T08:45:42.527Z,13.42
2022-10-09T08:46:42.632Z,13.38
2022-10-09T08:47:42.508Z,13.42
2022-10-09T08:48:42.505Z,13.56
2022-10-09T08:49:42.485Z,13.67
2022-10-09T08:50:42.471Z,13.71
2022-10-09T08:51:42.486Z,13.78
2022-10-09T08:52:45.709Z,13.81
2022-10-09T08:53:43.443Z,13.77
2022-10-09T08:54:42.449Z,13.95
2022-10-09T08:55:42.415Z,14.10
2022-10-09T08:56:42.430Z,14.05
2022-10-09T08:57:42.398Z,14.03
2022-10-09T08:58:42.393Z,14.00
2022-10-09T08:59:42.372Z,13.96
2022-10-09T09:00:42.354Z,13.78
2022-10-09T09:01:42.428Z,13.78
2022-10-09T09:02:42.432Z,13.99
2022-10-09T09:03:42.335Z,14.22
2022-10-09T09:04:42.327Z,14.28
2022-10-09T09:05:42.306Z,14.36
2022-10-09T09:06:42.298Z,14.47
2022-10-09T09:07:42.310Z,14.47
2022-10-09T09:08:42.288Z,14.53
2022-10-09T09:09:42.263Z,14.59
2022-10-09T09:10:42.253Z,14.78
2022-10-09T09:11:42.241Z,14.77
2022-10-09T09:12:42.248Z,14.77
2022-10-09T09:13:42.250Z,14.89
2022-10-09T09:14:42.200Z,15.04
2022-10-09T09:15:42.271Z,14.92
2022-10-09T09:16:42.197Z,15.00
2022-10-09T09:17:42.180Z,15.10
2022-10-09T09:18:43.112Z,15.17
2022-10-09T09:19:42.161Z,15.11
2022-10-09T09:20:42.142Z,15.18
2022-10-09T09:21:42.125Z,15.14
2022-10-09T09:22:42.118Z,15.14
2022-10-09T09:23:42.133Z,15.22
2022-10-09T09:24:42.109Z,15.42
2022-10-09T09:25:42.183Z,15.49
2022-10-09T09:26:42.079Z,15.55
2022-10-09T09:27:42.066Z,15.64
2022-10-09T09:28:42.066Z,15.65
2022-10-09T09:29:42.038Z,15.64
2022-10-09T09:30:42.069Z,15.72
2022-10-09T09:31:42.071Z,15.68
2022-10-09T09:32:42.005Z,15.76
2022-10-09T09:33:44.592Z,15.98
2022-10-09T09:34:42.017Z,15.90
2022-10-09T09:35:41.973Z,15.91
2022-10-09T09:36:41.982Z,15.97
2022-10-09T09:37:41.956Z,15.97
2022-10-09T09:39:12.649Z,15.98
2022-10-09T09:40:46.704Z,16.01
2022-10-09T09:41:41.907Z,16.01
2022-10-09T09:42:41.914Z,16.12
2022-10-09T09:43:41.887Z,16.20
2022-10-09T09:44:41.886Z,16.29
2022-10-09T09:45:41.863Z,16.21
2022-10-09T09:46:41.950Z,16.24
2022-10-09T09:47:41.834Z,16.02
2022-10-09T09:48:41.826Z,16.12
2022-10-09T09:49:41.832Z,16.13
2022-10-09T09:50:50.477Z,16.09
2022-10-09T09:51:42.803Z,16.20
2022-10-09T09:52:41.769Z,16.38
2022-10-09T09:53:41.768Z,16.32
2022-10-09T09:54:41.764Z,16.33
2022-10-09T09:55:41.742Z,16.26
2022-10-09T09:57:13.935Z,16.43
2022-10-09T09:57:42.717Z,16.39
2022-10-09T09:58:41.720Z,16.35
2022-10-09T09:59:41.697Z,16.43
2022-10-09T10:00:41.705Z,16.39
2022-10-09T10:01:41.761Z,16.46
2022-10-09T10:02:41.677Z,16.51
2022-10-09T10:03:41.651Z,16.58
2022-10-09T10:04:43.299Z,16.56
2022-10-09T10:05:41.633Z,16.49
2022-10-09T10:06:41.634Z,16.47
2022-10-09T10:07:41.617Z,16.42
2022-10-09T10:08:41.604Z,16.46
2022-10-09T10:09:41.589Z,16.54
2022-10-09T10:10:41.571Z,16.72
2022-10-09T10:11:41.606Z,16.69
2022-10-09T10:12:41.594Z,16.74
2022-10-09T10:13:41.580Z,16.87
2022-10-09T10:14:41.526Z,16.83
2022-10-09T10:15:41.524Z,16.76
2022-10-09T10:16:41.508Z,16.72
2022-10-09T10:17:41.523Z,16.72
2022-10-09T10:18:41.521Z,16.72
2022-10-09T10:19:41.485Z,16.87
2022-10-09T10:20:41.470Z,16.96
2022-10-09T10:21:41.449Z,16.96
2022-10-09T10:22:41.479Z,16.97
2022-10-09T10:23:41.449Z,17.06
2022-10-09T10:24:41.444Z,17.02
2022-10-09T10:25:41.405Z,17.11
2022-10-09T10:26:41.402Z,17.06
2022-10-09T10:27:41.397Z,17.08
2022-10-09T10:28:41.458Z,17.26
2022-10-09T10:29:41.359Z,17.26
2022-10-09T10:30:41.413Z,17.29
2022-10-09T10:31:41.395Z,17.39
2022-10-09T10:32:41.326Z,17.34
2022-10-09T10:33:41.320Z,17.33
2022-10-09T10:34:41.328Z,17.42
2022-10-09T10:35:41.307Z,17.51
2022-10-09T10:36:41.284Z,17.45
2022-10-09T10:37:41.272Z,17.64
2022-10-09T10:38:41.265Z,17.54
2022-10-09T10:39:41.276Z,17.63
2022-10-09T10:40:41.263Z,17.63
2022-10-09T10:41:41.231Z,17.52
2022-10-09T10:42:41.223Z,17.51
2022-10-09T10:43:41.211Z,17.67
2022-10-09T10:44:41.221Z,17.72
2022-10-09T10:45:41.215Z,17.72
2022-10-09T10:46:41.258Z,17.65
2022-10-09T10:47:41.191Z,17.64
2022-10-09T10:48:41.147Z,17.80
2022-10-09T10:49:41.140Z,17.82
2022-10-09T10:50:41.135Z,17.95
2022-10-09T10:51:41.123Z,17.90
2022-10-09T10:52:41.108Z,17.82
2022-10-09T10:53:41.104Z,17.86
2022-10-09T10:54:41.198Z,17.79
2022-10-09T10:55:41.086Z,17.82
2022-10-09T10:56:41.065Z,17.79
2022-10-09T10:57:41.053Z,17.59
2022-10-09T10:58:41.044Z,17.48
2022-10-09T10:59:41.033Z,17.54
2022-10-09T11:00:41.144Z,17.56
2022-10-09T11:01:41.019Z,17.59
2022-10-09T11:02:42.159Z,17.54
2022-10-09T11:03:41.042Z,17.65
2022-10-09T11:04:40.986Z,17.72
2022-10-09T11:05:40.960Z,17.65
2022-10-09T11:06:40.971Z,17.68
2022-10-09T11:07:40.961Z,17.72
2022-10-09T11:08:40.937Z,17.76
2022-10-09T11:09:40.917Z,17.85
2022-10-09T11:10:40.906Z,17.76
2022-10-09T11:11:40.895Z,17.68
2022-10-09T11:12:57.734Z,17.65
2022-10-09T11:13:41.888Z,17.60
2022-10-09T11:14:40.866Z,17.59
2022-10-09T11:15:40.872Z,17.70
2022-10-09T11:16:40.912Z,17.64
2022-10-09T11:17:40.849Z,17.68
2022-10-09T11:18:40.818Z,17.74
2022-10-09T11:19:45.272Z,17.72
2022-10-09T11:20:40.806Z,17.87
2022-10-09T11:21:40.811Z,17.78
2022-10-09T11:22:40.779Z,17.89
2022-10-09T11:23:40.763Z,17.94
2022-10-09T11:24:40.756Z,18.01
2022-10-09T11:25:40.759Z,18.07
2022-10-09T11:26:40.739Z,18.15
2022-10-09T11:27:40.715Z,18.22
2022-10-09T11:28:40.761Z,18.35
2022-10-09T11:29:40.700Z,18.45
2022-10-09T11:30:40.687Z,18.41
2022-10-09T11:31:40.760Z,18.38
2022-10-09T11:33:40.650Z,18.23
2022-10-09T11:34:40.645Z,18.34
2022-10-09T11:35:40.647Z,18.31
2022-10-09T11:36:40.631Z,18.40
2022-10-09T11:37:40.611Z,18.47
2022-10-09T11:38:40.613Z,18.45
2022-10-09T11:39:40.587Z,18.44
2022-10-09T11:40:40.579Z,18.35
2022-10-09T11:41:40.575Z,18.43
2022-10-09T11:42:40.557Z,18.26
2022-10-09T11:43:40.542Z,18.22
2022-10-09T11:44:40.535Z,18.22
2022-10-09T11:45:40.617Z,18.33
2022-10-09T11:46:40.510Z,18.37
2022-10-09T11:47:40.528Z,18.22
2022-10-09T11:48:40.506Z,18.29
2022-10-09T11:49:40.478Z,18.25
2022-10-09T11:50:40.474Z,18.20
2022-10-09T11:51:40.470Z,18.22
2022-10-09T11:52:40.440Z,18.25
2022-10-09T11:53:40.429Z,18.11
2022-10-09T11:54:40.447Z,18.13
2022-10-09T11:55:40.416Z,18.19
2022-10-09T11:56:40.430Z,18.26
2022-10-09T11:57:40.400Z,18.22
2022-10-09T11:58:40.382Z,18.43
2022-10-09T11:59:40.381Z,18.35
2022-10-09T12:00:40.377Z,18.34
2022-10-09T12:01:40.414Z,18.35
2022-10-09T12:02:40.400Z,18.23
2022-10-09T12:03:40.317Z,18.11
2022-10-09T12:04:56.169Z,18.23
2022-10-09T12:05:41.313Z,18.29
2022-10-09T12:06:40.318Z,18.26
2022-10-09T12:07:40.303Z,18.25
2022-10-09T12:08:40.267Z,18.22
2022-10-09T12:09:40.267Z,18.20
2022-10-09T12:10:40.251Z,18.45
2022-10-09T12:11:40.245Z,18.47
2022-10-09T12:12:40.229Z,18.35
2022-10-09T12:13:40.207Z,18.19
2022-10-09T12:14:40.198Z,18.23
2022-10-09T12:15:40.210Z,18.25
2022-10-09T12:16:40.238Z,18.41
2022-10-09T12:17:40.166Z,18.44
2022-10-09T12:18:40.160Z,18.38
2022-10-09T12:19:40.142Z,18.37
2022-10-09T12:20:40.150Z,18.45
2022-10-09T12:21:40.136Z,18.50
2022-10-09T12:22:40.118Z,18.47
2022-10-09T12:23:40.096Z,18.29
2022-10-09T12:24:40.106Z,18.25
2022-10-09T12:25:40.074Z,18.19
2022-10-09T12:26:40.092Z,18.16
2022-10-09T12:27:40.051Z,18.10
2022-10-09T12:28:40.084Z,18.22
2022-10-09T12:29:40.039Z,18.19
2022-10-09T12:30:43.773Z,18.25
2022-10-09T12:31:41.017Z,18.15
2022-10-09T12:32:40.012Z,18.01
2022-10-09T12:33:39.985Z,17.94
2022-10-09T12:34:39.975Z,18.03
2022-10-09T12:35:39.972Z,17.94
2022-10-09T12:36:39.987Z,17.83
2022-10-09T12:37:39.939Z,17.80
2022-10-09T12:38:39.947Z,17.76
2022-10-09T12:39:39.926Z,17.67
2022-10-09T12:40:39.911Z,17.67
2022-10-09T12:41:39.923Z,17.68
2022-10-09T12:42:39.895Z,17.72
2022-10-09T12:43:39.892Z,17.72
2022-10-09T12:44:39.871Z,17.79
2022-10-09T12:45:39.887Z,17.70
2022-10-09T12:46:39.884Z,17.80
2022-10-09T12:47:39.858Z,17.79
2022-10-09T12:48:39.825Z,17.82
2022-10-09T12:49:39.813Z,17.70
2022-10-09T12:50:39.826Z,17.82
2022-10-09T12:51:39.801Z,17.82
2022-10-09T12:52:39.808Z,17.83
2022-10-09T12:53:39.765Z,17.92
2022-10-09T12:54:39.761Z,17.90
2022-10-09T12:55:39.741Z,17.85
2022-10-09T12:56:39.745Z,17.78
2022-10-09T12:57:39.742Z,17.79
2022-10-09T12:58:39.720Z,17.85
2022-10-09T12:59:39.701Z,17.83
2022-10-09T13:00:39.710Z,17.89
2022-10-09T13:01:39.781Z,17.95
2022-10-09T13:02:39.804Z,17.94
2022-10-09T13:03:39.671Z,17.82
2022-10-09T13:04:39.653Z,17.72
2022-10-09T13:05:39.637Z,17.67
2022-10-09T13:06:39.645Z,17.71
2022-10-09T13:07:39.618Z,17.65
2022-10-09T13:08:39.616Z,17.70
2022-10-09T13:09:39.594Z,17.71